This is the latest recevied weather packets stored in our database for station/object KA3ZXO. If no packets are shown the sender has not sent any weather packets the latest 10 day(s).
| Time | Temp. | Humidity | Pressure | Rain* | Wind** | Luminosity | Snow |
|---|---|---|---|---|---|---|---|
| 1777590563 | 18.33° C | 40% | 1009.1 hPa | 0 mm | - | 14 W/m² | - |
| 1777589963 | 18.89° C | 39% | 1009 hPa | 0 mm | - | 22 W/m² | - |
| 1777589363 | 18.89° C | 38% | 1008.8 hPa | 0 mm | - | 20 W/m² | - |
| 1777588761 | 18.89° C | 40% | 1008.8 hPa | 0 mm | - | 39 W/m² | - |
| 1777588158 | 20° C | 40% | 1008.7 hPa | 0 mm | - | 40 W/m² | - |
| 1777587556 | 20° C | 41% | 1008.7 hPa | 0 mm | - | 50 W/m² | - |
| 1777586952 | 20° C | 40% | 1008.5 hPa | 0 mm | - | 48 W/m² | - |
| 1777586349 | 20.56° C | 39% | 1008.4 hPa | 0 mm | - | 118 W/m² | - |
| 1777585747 | 19.44° C | 44% | 1008.3 hPa | 0 mm | - | 44 W/m² | - |
| 1777585143 | 20° C | 43% | 1008.4 hPa | 0 mm | - | 54 W/m² | - |
| 1777584543 | 21.11° C | 41% | 1008.3 hPa | 0 mm | - | 67 W/m² | - |
| 1777583938 | 21.67° C | 40% | 1008.3 hPa | 0 mm | - | 107 W/m² | - |
| 1777583333 | 20° C | 43% | 1008.2 hPa | 0 mm | - | 74 W/m² | - |
| 1777582732 | 20.56° C | 41% | 1008 hPa | 0 mm | - | 102 W/m² | - |
| 1777582127 | 20° C | 44% | 1008.2 hPa | 0 mm | - | 114 W/m² | - |
| 1777581525 | 20° C | 45% | 1008.1 hPa | 0 mm | - | 59 W/m² | - |
| 1777580920 | 20° C | 43% | 1007.9 hPa | 0 mm | - | 27 W/m² | - |
| 1777580317 | 21.11° C | 40% | 1007.7 hPa | 0 mm | - | 155 W/m² | - |
| 1777579715 | 21.11° C | 41% | 1007.7 hPa | 0 mm | - | 481 W/m² | - |
| 1777579115 | 20.56° C | 43% | 1007.9 hPa | 0 mm | - | 562 W/m² | - |
| 1777578511 | 21.67° C | 40% | 1007.5 hPa | 0 mm | - | 386 W/m² | - |
| 1777577907 | 21.11° C | 41% | 1007.7 hPa | 0 mm | - | 602 W/m² | - |
| 1777577306 | 20.56° C | 42% | 1007.6 hPa | 0 mm | - | 140 W/m² | - |
| 1777576706 | 21.67° C | 41% | 1007.7 hPa | 0 mm | - | 543 W/m² | - |
| 1777576101 | 20.56° C | 42% | 1007.8 hPa | 0 mm | - | 109 W/m² | - |
* Rain latest hour (hover to see other rain measurements)
** Current wind speed in m/s (hover to see current wind gust speed)